Time;durP1;ratioP1;P1;durP2;ratioP2;P2;SDS_P1;SDS_P2;PMS_P1;PMS_P2;Temp;Humidity;BMP_temperature;BMP_pressure;BME280_temperature;BME280_humidity;BME280_pressure;Samples;Min_cycle;Max_cycle;Signal;HPM_P1;HPM_P2
2022/04/02 00:00:59;;;;;;;3.70;2.00;;;2.00;99.90;;;;;;4865778;29;20132;-87
2022/04/02 00:03:24;;;;;;;3.47;2.40;;;2.00;99.90;;;;;;4883185;29;20052;-86
2022/04/02 00:05:50;;;;;;;4.73;2.40;;;2.00;99.90;;;;;;4868230;29;20100;-87
2022/04/02 00:08:16;;;;;;;3.53;2.40;;;2.00;99.90;;;;;;4854659;29;20041;-87
2022/04/02 00:10:42;;;;;;;3.23;2.20;;;2.00;99.90;;;;;;4867523;29;20076;-87
2022/04/02 00:13:08;;;;;;;4.90;2.27;;;2.00;99.90;;;;;;4884922;29;20385;-87
2022/04/02 00:15:33;;;;;;;3.47;2.10;;;2.00;99.90;;;;;;4867471;29;20052;-86
2022/04/02 00:17:59;;;;;;;3.30;2.23;;;2.00;99.90;;;;;;4882883;29;20300;-86
2022/04/02 00:20:25;;;;;;;2.73;2.10;;;1.90;99.90;;;;;;4882187;29;20088;-86
2022/04/02 00:25:36;;;;;;;4.07;2.40;;;1.90;99.90;;;;;;4885597;29;20036;-85
2022/04/02 00:28:02;;;;;;;3.93;2.33;;;1.90;99.90;;;;;;4869826;29;20416;-86
2022/04/02 00:30:27;;;;;;;2.80;2.07;;;1.90;99.90;;;;;;4868700;29;20040;-86
2022/04/02 00:32:53;;;;;;;3.80;2.03;;;1.90;99.90;;;;;;4883945;29;20060;-85
2022/04/02 00:35:19;;;;;;;4.37;2.20;;;1.90;99.90;;;;;;4852434;29;20524;-85
2022/04/02 00:37:45;;;;;;;4.37;2.03;;;1.90;99.90;;;;;;4854092;29;20041;-85
2022/04/02 00:40:10;;;;;;;2.77;1.90;;;2.00;99.90;;;;;;4852061;29;20048;-87
2022/04/02 00:42:37;;;;;;;6.63;2.47;;;1.90;99.90;;;;;;4868118;29;20443;-87
2022/04/02 00:45:03;;;;;;;6.43;2.37;;;2.00;99.90;;;;;;4881943;29;20591;-86
2022/04/02 00:47:29;;;;;;;4.13;2.27;;;1.90;99.90;;;;;;4867517;29;20308;-86
2022/04/02 00:49:55;;;;;;;4.40;2.40;;;1.90;99.90;;;;;;4867552;29;20301;-86
2022/04/02 00:52:21;;;;;;;3.70;2.10;;;1.90;99.90;;;;;;4879747;29;20078;-86
2022/04/02 00:54:52;;;;;;;5.30;2.60;;;1.90;99.90;;;;;;4867969;29;20795;-87
2022/04/02 00:57:18;;;;;;;4.07;2.07;;;1.90;99.90;;;;;;4881208;29;20305;-86
2022/04/02 00:59:45;;;;;;;3.57;2.03;;;1.80;99.90;;;;;;4866441;29;20301;-87
2022/04/02 01:02:12;;;;;;;3.37;1.87;;;1.80;99.90;;;;;;4864434;29;20512;-87
2022/04/02 01:04:38;;;;;;;4.37;2.50;;;1.80;99.90;;;;;;4868704;29;20313;-85
2022/04/02 01:07:04;;;;;;;3.10;1.93;;;1.80;99.90;;;;;;4870054;29;20320;-86
2022/04/02 01:09:30;;;;;;;4.10;2.00;;;1.80;99.90;;;;;;4883590;29;20293;-86
2022/04/02 01:11:56;;;;;;;3.43;2.10;;;1.80;99.90;;;;;;4891408;29;20297;-87
2022/04/02 01:14:22;;;;;;;5.93;2.63;;;1.70;99.90;;;;;;4871550;29;20056;-87
2022/04/02 01:16:48;;;;;;;5.13;2.30;;;1.60;99.90;;;;;;4888894;29;20707;-87
2022/04/02 01:19:14;;;;;;;6.33;2.33;;;1.50;99.90;;;;;;4853925;29;20391;-89
2022/04/02 01:21:48;;;;;;;4.10;2.53;;;1.50;99.90;;;;;;4870526;29;20371;-89
2022/04/02 01:24:14;;;;;;;6.17;2.70;;;1.40;99.90;;;;;;4885811;29;20308;-86
2022/04/02 01:26:40;;;;;;;8.57;3.33;;;1.40;99.90;;;;;;4882213;29;20570;-87
2022/04/02 01:29:06;;;;;;;5.53;2.43;;;1.30;99.90;;;;;;4870351;29;20072;-88
2022/04/02 01:31:33;;;;;;;6.50;2.67;;;1.20;99.90;;;;;;4882631;29;20316;-87
2022/04/02 01:34:00;;;;;;;4.77;2.67;;;1.20;99.90;;;;;;4880008;29;20315;-87
2022/04/02 01:36:26;;;;;;;4.83;2.50;;;1.30;99.90;;;;;;4883636;29;20301;-87
2022/04/02 01:38:52;;;;;;;5.10;2.80;;;1.20;99.90;;;;;;4885772;29;20320;-87
2022/04/02 01:41:18;;;;;;;4.67;2.40;;;1.20;99.90;;;;;;4869541;29;20056;-87
2022/04/02 01:43:45;;;;;;;4.90;2.57;;;1.10;99.90;;;;;;4885993;29;20376;-87
2022/04/02 01:46:11;;;;;;;7.40;2.90;;;1.00;99.90;;;;;;4886272;29;20603;-87
2022/04/02 01:48:37;;;;;;;4.73;2.80;;;1.10;99.90;;;;;;4865589;29;20376;-86
2022/04/02 01:51:03;;;;;;;6.50;2.80;;;1.00;99.90;;;;;;4866171;29;20536;-87
2022/04/02 01:53:30;;;;;;;5.30;2.90;;;1.00;99.90;;;;;;4884197;29;20880;-87
2022/04/02 01:55:56;;;;;;;6.07;2.70;;;0.90;99.90;;;;;;4868540;29;20129;-86
2022/04/02 01:58:22;;;;;;;6.67;3.17;;;1.00;99.90;;;;;;4873696;29;20476;-86
2022/04/02 02:00:48;;;;;;;4.60;2.80;;;0.90;99.90;;;;;;4874086;29;20929;-86
2022/04/02 02:03:14;;;;;;;4.90;2.53;;;0.80;99.90;;;;;;4869858;29;20057;-87
2022/04/02 02:05:41;;;;;;;5.40;2.60;;;0.90;99.90;;;;;;4883371;29;20388;-89
2022/04/02 02:08:07;;;;;;;7.20;2.90;;;0.90;99.90;;;;;;4886634;29;20301;-86
2022/04/02 02:10:33;;;;;;;5.43;3.27;;;0.90;99.90;;;;;;4868988;29;20384;-87
2022/04/02 02:12:59;;;;;;;3.90;2.70;;;0.80;99.90;;;;;;4854409;29;20396;-87
2022/04/02 02:15:27;;;;;;;4.23;2.83;;;0.80;99.90;;;;;;4885698;29;20553;-87
2022/04/02 02:17:53;;;;;;;5.07;2.73;;;0.80;99.90;;;;;;4868618;29;20319;-86
2022/04/02 02:20:20;;;;;;;3.13;2.80;;;0.90;99.90;;;;;;4867205;29;20301;-88
2022/04/02 02:22:47;;;;;;;4.80;2.50;;;0.90;99.90;;;;;;4869354;29;20293;-86
2022/04/02 02:25:14;;;;;;;7.30;2.80;;;0.90;99.90;;;;;;4884492;29;20317;-86
2022/04/02 02:27:42;;;;;;;4.63;2.60;;;0.90;99.90;;;;;;4860187;29;20369;-88
2022/04/02 02:30:09;;;;;;;7.90;3.07;;;1.00;99.90;;;;;;4868779;29;20300;-87
2022/04/02 02:32:39;;;;;;;7.90;3.07;;;1.00;99.90;;;;;;4886118;29;20301;-87
2022/04/02 02:38:08;;;;;;;10.03;3.53;;;1.10;99.90;;;;;;4880848;29;20322;-87
2022/04/02 02:40:35;;;;;;;6.53;2.70;;;1.20;99.90;;;;;;4883530;29;20309;-87
2022/04/02 02:43:01;;;;;;;6.97;3.03;;;1.10;99.90;;;;;;4868291;29;20398;-87
2022/04/02 02:45:27;;;;;;;4.63;2.63;;;1.10;99.90;;;;;;4885407;29;20344;-87
2022/04/02 02:47:54;;;;;;;4.83;3.00;;;1.10;99.90;;;;;;4865464;29;20063;-88
2022/04/02 02:50:20;;;;;;;4.57;2.87;;;1.10;99.90;;;;;;4882446;29;20289;-85
2022/04/02 02:52:47;;;;;;;6.10;2.93;;;1.10;99.90;;;;;;4883543;29;20311;-85
2022/04/02 02:55:12;;;;;;;5.00;2.80;;;1.00;99.90;;;;;;4870471;29;20649;-85
2022/04/02 02:57:40;;;;;;;6.13;3.20;;;0.90;99.90;;;;;;4868587;29;20815;-84
2022/04/02 03:00:07;;;;;;;6.37;2.90;;;0.90;99.90;;;;;;4882906;29;20481;-85
2022/04/02 03:02:34;;;;;;;7.77;2.97;;;0.90;99.90;;;;;;4866150;29;20308;-84
2022/04/02 03:04:59;;;;;;;5.07;2.93;;;0.90;99.90;;;;;;4865267;29;20325;-86
2022/04/02 03:07:25;;;;;;;6.20;3.00;;;0.80;99.90;;;;;;4884390;29;20301;-86
2022/04/02 03:09:51;;;;;;;7.00;3.20;;;0.80;99.90;;;;;;4882904;29;20429;-85
2022/04/02 03:12:17;;;;;;;5.97;2.90;;;0.80;99.90;;;;;;4868490;29;20317;-87
2022/04/02 03:14:43;;;;;;;5.93;3.17;;;0.80;99.90;;;;;;4853341;29;20504;-87
2022/04/02 03:17:09;;;;;;;6.50;2.70;;;0.80;99.90;;;;;;4899707;29;20133;-87
2022/04/02 03:19:35;;;;;;;5.30;3.20;;;0.70;99.90;;;;;;4884597;29;20524;-87
2022/04/02 03:22:01;;;;;;;5.20;3.03;;;0.70;99.90;;;;;;4882654;29;20305;-88
2022/04/02 03:24:28;;;;;;;5.80;3.17;;;0.70;99.90;;;;;;4884383;29;20060;-87
2022/04/02 03:26:54;;;;;;;6.10;3.10;;;0.70;99.90;;;;;;4882497;29;20101;-87
2022/04/02 03:29:20;;;;;;;5.87;3.50;;;0.60;99.90;;;;;;4865271;29;20294;-86
2022/04/02 03:31:47;;;;;;;8.10;3.17;;;0.60;99.90;;;;;;4864393;29;20045;-87
2022/04/02 03:34:13;;;;;;;7.73;3.30;;;0.60;99.90;;;;;;4882107;29;20305;-85
2022/04/02 03:36:38;;;;;;;7.77;3.30;;;0.60;99.90;;;;;;4868927;29;20311;-85
2022/04/02 03:39:04;;;;;;;5.90;3.20;;;0.50;99.90;;;;;;4849632;29;20092;-87
2022/04/02 03:41:30;;;;;;;8.00;3.07;;;0.50;99.90;;;;;;4867591;29;20100;-86
2022/04/02 03:43:58;;;;;;;6.70;2.67;;;0.50;99.90;;;;;;4880716;29;20052;-86
2022/04/02 03:49:08;;;;;;;7.07;3.00;;;0.40;99.90;;;;;;4882597;29;20301;-85
2022/04/02 03:51:34;;;;;;;4.40;2.87;;;0.40;99.90;;;;;;4883919;29;20372;-85
2022/04/02 03:54:00;;;;;;;7.43;2.87;;;0.40;99.90;;;;;;4899409;29;20121;-86
2022/04/02 03:56:26;;;;;;;4.13;2.77;;;0.30;99.90;;;;;;4865275;29;20052;-85
2022/04/02 03:58:52;;;;;;;8.70;3.10;;;0.30;99.90;;;;;;4867235;29;20354;-85
2022/04/02 04:01:18;;;;;;;8.20;2.97;;;0.40;99.90;;;;;;4880512;29;20047;-85
2022/04/02 04:03:44;;;;;;;5.83;2.90;;;0.40;99.90;;;;;;4883061;29;20057;-87
2022/04/02 04:06:09;;;;;;;4.43;2.73;;;0.40;99.90;;;;;;4897786;29;20047;-87
2022/04/02 04:08:40;;;;;;;5.33;3.10;;;0.40;99.90;;;;;;4835163;29;20074;-87
2022/04/02 04:11:06;;;;;;;5.17;2.70;;;0.40;99.90;;;;;;4881937;29;20084;-89
2022/04/02 04:13:32;;;;;;;7.97;3.53;;;0.40;99.90;;;;;;4882462;29;20311;-87
2022/04/02 04:16:00;;;;;;;7.73;3.37;;;0.40;99.90;;;;;;4869216;29;20806;-87
2022/04/02 04:18:27;;;;;;;5.37;3.07;;;0.40;99.90;;;;;;4883368;29;20120;-86
2022/04/02 04:20:53;;;;;;;7.40;3.23;;;0.40;99.90;;;;;;4864203;29;20325;-87
2022/04/02 04:23:19;;;;;;;7.33;3.57;;;0.40;99.90;;;;;;4873963;29;20316;-85
2022/04/02 04:25:44;;;;;;;8.80;2.90;;;0.40;99.90;;;;;;4883694;29;20055;-86
2022/04/02 04:28:10;;;;;;;6.93;2.83;;;0.40;99.90;;;;;;4869560;29;20040;-87
2022/04/02 04:30:36;;;;;;;4.57;2.73;;;0.40;99.90;;;;;;4882721;29;20745;-87
2022/04/02 04:33:02;;;;;;;6.10;2.90;;;0.40;99.90;;;;;;4865964;29;20301;-88
2022/04/02 04:35:28;;;;;;;9.40;2.93;;;0.40;99.90;;;;;;4852324;29;20051;-88
2022/04/02 04:37:54;;;;;;;5.53;2.73;;;0.40;99.90;;;;;;4898269;29;20296;-86
2022/04/02 04:40:20;;;;;;;6.10;2.97;;;0.40;99.90;;;;;;4860271;29;20301;-87
2022/04/02 04:42:46;;;;;;;7.60;3.40;;;0.40;99.90;;;;;;4863414;29;20060;-88
2022/04/02 04:45:11;;;;;;;6.80;3.03;;;0.40;99.90;;;;;;4866620;29;21382;-86
2022/04/02 04:47:37;;;;;;;8.80;2.70;;;0.40;99.90;;;;;;4882122;29;20052;-89
2022/04/02 04:50:03;;;;;;;5.37;2.90;;;0.40;99.90;;;;;;4867343;29;20635;-87
2022/04/02 04:52:29;;;;;;;7.70;3.20;;;0.40;99.90;;;;;;4866255;29;20288;-86
2022/04/02 04:54:55;;;;;;;6.00;2.90;;;0.40;99.90;;;;;;4883544;29;20676;-87
2022/04/02 04:57:21;;;;;;;6.13;3.23;;;0.30;99.90;;;;;;4847470;29;20059;-87
2022/04/02 04:59:46;;;;;;;4.67;2.90;;;0.30;99.90;;;;;;4849221;29;20682;-86
2022/04/02 05:02:12;;;;;;;5.67;3.03;;;0.30;99.90;;;;;;4881209;29;20059;-87
2022/04/02 05:04:38;;;;;;;6.73;3.17;;;0.30;99.90;;;;;;4881817;29;20048;-86
2022/04/02 05:07:05;;;;;;;9.17;3.50;;;0.30;99.90;;;;;;4849723;29;20060;-86
2022/04/02 05:09:30;;;;;;;4.70;2.87;;;0.20;99.90;;;;;;4880216;29;20297;-88
2022/04/02 05:11:57;;;;;;;7.40;3.63;;;0.30;99.90;;;;;;4870502;29;20308;-87
2022/04/02 05:14:23;;;;;;;6.23;3.20;;;0.30;99.90;;;;;;4868784;29;20040;-86
2022/04/02 05:16:51;;;;;;;9.37;3.10;;;0.30;99.90;;;;;;4884473;29;20304;-86
2022/04/02 05:19:17;;;;;;;6.83;3.80;;;0.40;99.90;;;;;;4880945;29;20284;-87
2022/04/02 05:21:43;;;;;;;6.93;3.00;;;0.30;99.90;;;;;;4878949;29;20434;-88
2022/04/02 05:24:08;;;;;;;8.23;3.40;;;0.40;99.90;;;;;;4851463;29;20331;-86
2022/04/02 05:26:34;;;;;;;7.77;3.50;;;0.40;99.90;;;;;;4864808;29;20060;-87
2022/04/02 05:29:00;;;;;;;6.10;3.43;;;0.40;99.90;;;;;;4867957;29;20666;-88
2022/04/02 05:31:25;;;;;;;7.90;3.30;;;0.40;99.90;;;;;;4831103;29;20052;-86
2022/04/02 05:33:52;;;;;;;8.73;3.57;;;0.40;99.90;;;;;;4875124;29;20064;-82
2022/04/02 05:36:17;;;;;;;6.37;3.67;;;0.40;99.90;;;;;;4881684;29;20048;-87
2022/04/02 05:38:43;;;;;;;7.77;4.13;;;0.40;99.90;;;;;;4877603;29;20368;-87
2022/04/02 05:41:09;;;;;;;6.33;3.47;;;0.50;99.90;;;;;;4852034;29;20057;-89
2022/04/02 05:43:35;;;;;;;7.77;3.87;;;0.60;99.90;;;;;;4877820;29;20105;-88
2022/04/02 05:46:00;;;;;;;7.63;4.03;;;0.60;99.90;;;;;;4878573;29;20104;-88
2022/04/02 05:48:28;;;;;;;9.77;3.57;;;0.70;99.90;;;;;;4863897;29;20328;-87
2022/04/02 05:50:54;;;;;;;6.90;4.00;;;0.70;99.90;;;;;;4885605;29;20101;-87
2022/04/02 05:53:20;;;;;;;6.10;3.33;;;0.80;99.90;;;;;;4886544;29;20320;-87
2022/04/02 05:55:47;;;;;;;7.50;3.63;;;0.80;99.90;;;;;;4870899;29;20049;-87
2022/04/02 05:58:13;;;;;;;6.03;3.33;;;0.80;99.90;;;;;;4870993;29;20083;-87
2022/04/02 06:00:40;;;;;;;7.93;3.73;;;0.80;99.90;;;;;;4882871;29;20833;-86
2022/04/02 06:03:06;;;;;;;8.90;3.90;;;0.80;99.90;;;;;;4883266;29;20044;-88
2022/04/02 06:05:32;;;;;;;6.53;3.90;;;0.90;99.90;;;;;;4884932;29;20377;-89
2022/04/02 06:07:58;;;;;;;5.17;3.53;;;0.90;99.90;;;;;;4870538;29;21244;-87
2022/04/02 06:10:24;;;;;;;6.70;4.33;;;1.00;99.90;;;;;;4870642;29;20297;-86
2022/04/02 06:12:51;;;;;;;10.30;3.90;;;1.10;99.90;;;;;;4869683;29;20050;-88
2022/04/02 06:15:17;;;;;;;9.13;4.73;;;1.20;99.90;;;;;;4885575;29;20048;-87
2022/04/02 06:17:43;;;;;;;6.60;3.57;;;1.20;99.90;;;;;;4881893;29;20410;-88
2022/04/02 06:20:09;;;;;;;6.47;3.80;;;1.30;99.90;;;;;;4885306;29;20293;-89
2022/04/02 06:22:36;;;;;;;10.23;4.20;;;1.40;99.90;;;;;;4869726;29;20049;-88
2022/04/02 06:25:03;;;;;;;7.83;3.77;;;1.50;99.90;;;;;;4884999;29;20054;-87
2022/04/02 06:27:29;;;;;;;4.57;3.43;;;1.60;99.90;;;;;;4882691;29;20310;-87
2022/04/02 06:29:57;;;;;;;8.17;3.73;;;1.70;99.90;;;;;;4835826;29;20289;-87
2022/04/02 06:32:23;;;;;;;13.47;3.97;;;1.70;99.90;;;;;;4848507;29;20313;-87
2022/04/02 06:34:49;;;;;;;5.47;3.30;;;1.90;99.90;;;;;;4883678;29;20312;-88
2022/04/02 06:37:14;;;;;;;5.40;3.00;;;2.00;99.90;;;;;;4866166;29;20310;-88
2022/04/02 06:39:40;;;;;;;6.97;3.60;;;2.10;99.90;;;;;;4862389;29;20049;-87
2022/04/02 06:42:06;;;;;;;7.97;3.63;;;2.20;99.90;;;;;;4851545;29;20045;-88
2022/04/02 06:44:32;;;;;;;11.17;4.33;;;2.30;99.90;;;;;;4903315;29;20049;-88
2022/04/02 06:46:59;;;;;;;8.77;3.90;;;2.30;99.90;;;;;;4875401;29;20053;-87
2022/04/02 06:49:25;;;;;;;8.33;3.90;;;2.50;99.90;;;;;;4861978;29;20045;-89
2022/04/02 06:51:51;;;;;;;9.77;4.00;;;2.50;99.90;;;;;;4867990;29;20300;-85
2022/04/02 06:54:17;;;;;;;7.30;3.77;;;2.60;99.90;;;;;;4871048;29;20308;-85
2022/04/02 06:56:44;;;;;;;7.57;3.83;;;2.70;99.90;;;;;;4881763;29;20045;-85
2022/04/02 06:59:10;;;;;;;7.87;3.97;;;2.80;99.90;;;;;;4863454;29;20045;-84
2022/04/02 07:01:35;;;;;;;8.67;3.70;;;2.80;99.90;;;;;;4866813;29;20305;-86
2022/04/02 07:04:01;;;;;;;5.93;3.80;;;2.90;99.90;;;;;;4879334;29;20344;-87
2022/04/02 07:06:27;;;;;;;8.10;3.50;;;3.00;99.90;;;;;;4882174;29;20051;-87
2022/04/02 07:08:53;;;;;;;7.10;4.10;;;3.00;99.90;;;;;;4864776;29;20045;-89
2022/04/02 07:11:18;;;;;;;6.47;3.50;;;3.10;99.90;;;;;;4884641;29;20108;-85
2022/04/02 07:13:44;;;;;;;6.23;3.23;;;3.10;99.90;;;;;;4864146;29;20060;-86
2022/04/02 07:16:10;;;;;;;6.27;3.60;;;3.20;99.90;;;;;;4853243;29;20491;-87
2022/04/02 07:18:43;;;;;;;6.43;3.37;;;3.30;99.90;;;;;;4879917;29;20032;-88
2022/04/02 07:21:11;;;;;;;6.07;3.30;;;3.30;99.90;;;;;;4883082;29;20909;-88
2022/04/02 07:23:41;;;;;;;4.50;3.13;;;3.40;99.90;;;;;;4880812;29;20585;-87
2022/04/02 07:26:08;;;;;;;5.13;2.90;;;3.50;99.90;;;;;;4866894;29;20312;-87
2022/04/02 07:28:36;;;;;;;7.63;2.93;;;3.50;99.90;;;;;;4884565;29;20056;-87
2022/04/02 07:31:02;;;;;;;6.20;3.00;;;3.50;99.90;;;;;;4883907;29;20297;-88
2022/04/02 07:33:27;;;;;;;4.57;3.00;;;3.50;99.90;;;;;;4885310;29;20084;-81
2022/04/02 07:36:01;;;;;;;6.83;3.37;;;3.60;99.90;;;;;;4846398;29;20080;-81
2022/04/02 07:38:49;;;;;;;7.63;3.00;;;3.70;99.90;;;;;;4867814;29;20135;-82
2022/04/02 07:41:25;;;;;;;6.10;3.20;;;3.70;99.90;;;;;;4874067;29;20052;-81
2022/04/02 07:44:32;;;;;;;4.43;3.27;;;3.80;99.90;;;;;;4860611;29;20055;-82
2022/04/02 07:46:59;;;;;;;6.13;3.30;;;3.70;99.90;;;;;;4834206;29;20065;-81
2022/04/02 07:49:28;;;;;;;8.50;3.27;;;3.80;99.90;;;;;;4861043;29;20040;-81
2022/04/02 07:51:55;;;;;;;9.17;3.40;;;3.90;99.90;;;;;;4882970;29;20081;-81
2022/04/02 07:54:26;;;;;;;5.43;3.40;;;4.00;99.90;;;;;;4882768;29;20513;-80
2022/04/02 07:57:02;;;;;;;8.53;3.37;;;4.00;99.90;;;;;;4892586;29;20053;-82
2022/04/02 07:59:37;;;;;;;6.13;3.27;;;4.10;99.90;;;;;;4873229;29;20114;-82
2022/04/02 08:02:04;;;;;;;4.40;3.20;;;4.20;99.90;;;;;;4881681;29;20056;-82
2022/04/02 08:04:30;;;;;;;4.27;2.97;;;4.30;99.90;;;;;;4864512;29;20398;-82
2022/04/02 08:06:57;;;;;;;6.83;3.30;;;4.30;99.90;;;;;;4881799;29;20045;-82
2022/04/02 08:09:25;;;;;;;5.10;3.00;;;4.40;99.90;;;;;;4862903;29;20049;-81
2022/04/02 08:11:52;;;;;;;4.70;3.13;;;4.40;99.90;;;;;;4877550;29;20677;-82
2022/04/02 08:14:18;;;;;;;5.60;3.37;;;4.50;99.90;;;;;;4874016;29;20625;-82
2022/04/02 08:16:45;;;;;;;6.40;3.40;;;4.60;99.90;;;;;;4873161;29;20496;-82
2022/04/02 08:19:12;;;;;;;6.00;3.67;;;4.70;99.90;;;;;;4881692;29;20040;-82
2022/04/02 08:21:38;;;;;;;8.23;3.20;;;4.80;99.90;;;;;;4884209;29;20080;-80
2022/04/02 08:24:05;;;;;;;6.40;3.40;;;5.00;99.90;;;;;;4853747;29;20045;-83
2022/04/02 08:26:33;;;;;;;6.57;2.93;;;5.00;99.90;;;;;;4866173;29;20052;-81
2022/04/02 08:29:10;;;;;;;6.47;2.77;;;5.10;99.90;;;;;;4883164;29;20084;-84
2022/04/02 08:32:03;;;;;;;6.27;2.40;;;5.10;99.90;;;;;;4865148;29;20446;-82
2022/04/02 08:34:37;;;;;;;6.30;2.83;;;5.00;99.90;;;;;;4874932;29;20119;-83
2022/04/02 08:37:32;;;;;;;6.17;2.83;;;4.90;99.90;;;;;;4866767;29;20693;-83
2022/04/02 08:40:37;;;;;;;5.23;2.67;;;4.90;99.90;;;;;;4840191;29;20083;-83
2022/04/02 08:43:30;;;;;;;6.27;3.20;;;4.90;99.90;;;;;;4873918;29;20416;-83
2022/04/02 08:46:34;;;;;;;6.57;2.80;;;4.90;99.90;;;;;;4878994;29;20075;-81
2022/04/02 08:49:24;;;;;;;6.53;2.70;;;4.70;99.90;;;;;;4895099;29;20052;-82
2022/04/02 08:52:13;;;;;;;5.40;2.43;;;4.60;99.90;;;;;;4872243;29;20061;-82
2022/04/02 08:54:59;;;;;;;6.50;2.63;;;4.40;99.90;;;;;;4862268;29;20056;-84
2022/04/02 08:57:32;;;;;;;5.27;2.50;;;4.30;99.90;;;;;;4879829;29;20121;-83
2022/04/02 09:00:04;;;;;;;7.70;2.70;;;4.20;99.90;;;;;;4880292;29;20060;-83
2022/04/02 09:02:55;;;;;;;4.50;2.37;;;4.20;99.90;;;;;;4865415;29;20116;-83
2022/04/02 09:05:51;;;;;;;4.97;2.77;;;4.20;99.90;;;;;;4873000;29;20056;-84
2022/04/02 09:08:35;;;;;;;4.47;2.40;;;4.20;99.90;;;;;;4879173;29;20040;-84
2022/04/02 09:11:46;;;;;;;6.00;2.40;;;4.20;99.90;;;;;;4883100;29;20056;-83
2022/04/02 09:14:49;;;;;;;3.77;2.10;;;4.30;99.90;;;;;;4863602;29;20401;-83
2022/04/02 09:17:36;;;;;;;5.57;2.50;;;4.30;99.90;;;;;;4871070;29;20049;-83
2022/04/02 09:20:13;;;;;;;4.60;2.23;;;4.30;99.90;;;;;;4874557;29;20072;-83
2022/04/02 09:22:50;;;;;;;7.17;2.27;;;4.30;99.90;;;;;;4871399;29;20053;-83
2022/04/02 09:25:28;;;;;;;5.93;2.70;;;4.40;99.90;;;;;;4896442;29;20140;-83
2022/04/02 09:28:19;;;;;;;5.17;2.40;;;4.40;99.90;;;;;;4882137;29;20187;-83
2022/04/02 09:31:13;;;;;;;3.85;2.40;;;4.40;99.90;;;;;;4897730;29;20055;-82
2022/04/02 09:34:20;;;;;;;4.73;2.40;;;4.50;99.90;;;;;;4880029;29;20112;-82
2022/04/02 09:37:17;;;;;;;2.87;1.90;;;4.60;99.90;;;;;;4859718;29;20073;-82
2022/04/02 09:40:06;;;;;;;4.00;1.93;;;4.60;99.90;;;;;;4869453;29;20524;-83
2022/04/02 09:42:41;;;;;;;9.37;2.07;;;4.70;99.90;;;;;;4871825;29;20064;-83
2022/04/02 09:45:16;;;;;;;5.07;2.17;;;4.70;99.90;;;;;;4880284;29;20081;-83
2022/04/02 09:47:45;;;;;;;3.93;1.97;;;4.70;99.90;;;;;;4880106;29;20060;-83
2022/04/02 09:50:16;;;;;;;6.17;1.90;;;4.70;99.90;;;;;;4884324;29;20108;-83
2022/04/02 09:52:53;;;;;;;2.77;1.57;;;4.70;99.90;;;;;;4859195;29;20112;-83
2022/04/02 09:55:37;;;;;;;3.80;2.00;;;4.70;99.90;;;;;;4872348;29;20048;-82
2022/04/02 09:58:39;;;;;;;1.90;1.47;;;4.60;99.90;;;;;;4878798;29;20860;-82
2022/04/02 10:01:11;;;;;;;2.67;1.65;;;4.60;99.90;;;;;;4884704;29;20060;-84
2022/04/02 10:04:04;;;;;;;3.88;1.45;;;4.60;99.90;;;;;;4861993;29;20052;-83
2022/04/02 10:06:40;;;;;;;4.23;1.97;;;4.60;99.90;;;;;;4873194;29;20061;-83
2022/04/02 10:09:12;;;;;;;4.83;1.70;;;4.60;99.90;;;;;;4871874;29;20048;-82
2022/04/02 10:12:01;;;;;;;3.53;1.50;;;4.60;99.90;;;;;;4865176;29;20057;-83
2022/04/02 10:14:29;;;;;;;2.27;1.60;;;4.70;99.90;;;;;;4874441;29;20069;-83
2022/04/02 10:17:04;;;;;;;2.77;1.83;;;4.70;99.90;;;;;;4883995;29;20045;-83
2022/04/02 10:19:32;;;;;;;2.97;1.77;;;4.90;99.90;;;;;;4885570;29;20458;-83
2022/04/02 10:22:01;;;;;;;2.23;1.70;;;5.00;99.90;;;;;;4878741;29;20044;-80
2022/04/02 10:24:32;;;;;;;4.83;1.83;;;5.20;99.90;;;;;;4880132;29;20052;-83
2022/04/02 10:27:01;;;;;;;4.37;1.97;;;5.40;99.90;;;;;;4863860;29;20643;-83
2022/04/02 10:29:45;;;;;;;2.90;1.90;;;5.80;99.90;;;;;;4883663;29;20087;-83
2022/04/02 10:32:52;;;;;;;3.07;2.10;;;5.90;99.90;;;;;;4874754;29;20420;-82
2022/04/02 10:35:18;;;;;;;3.53;1.70;;;6.10;99.90;;;;;;4879076;29;20059;-82
2022/04/02 10:38:09;;;;;;;3.37;1.50;;;5.70;99.90;;;;;;4861318;29;20118;-82
2022/04/02 10:40:52;;;;;;;4.07;1.80;;;5.40;99.90;;;;;;4868530;29;20441;-84
2022/04/02 10:43:28;;;;;;;3.47;2.00;;;5.10;99.90;;;;;;4882319;29;20048;-83
2022/04/02 10:45:56;;;;;;;3.97;1.60;;;4.80;99.90;;;;;;4870424;29;20136;-82
2022/04/02 10:48:35;;;;;;;5.33;2.07;;;4.70;99.90;;;;;;4879373;29;20505;-84
2022/04/02 10:51:02;;;;;;;5.30;2.10;;;4.60;99.90;;;;;;4877876;29;20053;-83
2022/04/02 10:53:31;;;;;;;4.43;1.83;;;4.50;99.90;;;;;;4878394;29;20067;-83
2022/04/02 10:56:01;;;;;;;3.23;2.00;;;4.50;99.90;;;;;;4871317;29;20088;-83
2022/04/02 10:58:36;;;;;;;2.70;1.90;;;4.50;99.90;;;;;;4872280;29;20059;-82
2022/04/02 11:01:04;;;;;;;3.50;1.70;;;4.60;99.90;;;;;;4881838;29;20056;-83
2022/04/02 11:03:41;;;;;;;2.87;1.70;;;4.60;99.90;;;;;;4876528;29;20052;-82
2022/04/02 11:06:08;;;;;;;4.53;1.70;;;4.60;99.90;;;;;;4885482;29;20065;-84
2022/04/02 11:08:34;;;;;;;3.37;1.80;;;4.80;99.90;;;;;;4878291;29;20049;-84
2022/04/02 11:11:27;;;;;;;3.30;1.50;;;4.90;96.90;;;;;;4867739;29;20079;-85
2022/04/02 11:14:01;;;;;;;;;;;5.10;96.50;;;;;;4872840;29;20097;-83
2022/04/02 11:16:40;;;;;;;3.00;1.30;;;5.20;96.10;;;;;;4894042;29;19927;-83
2022/04/02 11:22:03;;;;;;;2.07;1.10;;;5.50;91.30;;;;;;4865077;29;20052;-84
2022/04/02 11:24:38;;;;;;;3.03;1.30;;;5.60;83.00;;;;;;4874536;29;20067;-84
2022/04/02 11:27:05;;;;;;;1.83;1.27;;;5.60;80.20;;;;;;4899707;29;20052;-83
2022/04/02 11:29:36;;;;;;;3.40;1.50;;;5.70;77.70;;;;;;4878634;29;20068;-82
2022/04/02 11:32:04;;;;;;;2.30;1.42;;;5.80;80.30;;;;;;4880992;29;20060;-82
2022/04/02 11:34:35;;;;;;;5.20;1.93;;;5.90;86.90;;;;;;4873438;29;20125;-82
2022/04/02 11:37:03;;;;;;;3.20;1.70;;;5.80;85.00;;;;;;4877366;29;20065;-83
2022/04/02 11:39:46;;;;;;;2.57;1.50;;;5.60;88.20;;;;;;4867651;29;20052;-84
2022/04/02 11:42:14;;;;;;;4.53;1.57;;;5.50;85.00;;;;;;4867057;29;20071;-82
2022/04/02 11:44:50;;;;;;;2.40;1.70;;;5.40;87.60;;;;;;4875096;29;20049;-84
2022/04/02 11:47:28;;;;;;;3.27;1.77;;;5.40;82.00;;;;;;4861806;29;20075;-82
2022/04/02 11:50:06;;;;;;;5.20;1.83;;;5.30;86.10;;;;;;4879470;29;20053;-82
2022/04/02 11:52:55;;;;;;;3.13;1.60;;;5.40;87.70;;;;;;4877924;29;20108;-83
2022/04/02 11:55:24;;;;;;;2.93;1.40;;;5.40;81.90;;;;;;4880042;29;20052;-81
2022/04/02 11:58:11;;;;;;;3.07;1.70;;;5.50;88.10;;;;;;4880418;29;20435;-81
2022/04/02 12:00:42;;;;;;;3.23;1.30;;;5.50;82.50;;;;;;4878953;29;20053;-81
2022/04/02 12:03:22;;;;;;;2.80;1.70;;;5.60;84.60;;;;;;4881984;29;20052;-80
2022/04/02 12:05:49;;;;;;;4.30;1.53;;;5.70;82.30;;;;;;4863724;29;20124;-80
2022/04/02 12:08:31;;;;;;;3.77;1.80;;;5.60;84.40;;;;;;4875355;29;20160;-77
2022/04/02 12:11:03;;;;;;;5.60;2.20;;;5.70;86.40;;;;;;4896468;29;20054;-80
2022/04/02 12:13:29;;;;;;;2.95;1.65;;;5.60;86.80;;;;;;4879407;29;20049;-80
2022/04/02 12:16:08;;;;;;;5.80;1.77;;;5.60;85.70;;;;;;4873254;29;20048;-77
2022/04/02 12:18:48;;;;;;;3.93;1.80;;;5.70;87.10;;;;;;4863430;29;20247;-80
2022/04/02 12:21:16;;;;;;;4.13;1.87;;;5.70;86.00;;;;;;4880424;29;20087;-80
2022/04/02 12:23:56;;;;;;;2.50;1.70;;;5.60;86.00;;;;;;4875465;29;20057;-80
2022/04/02 12:26:24;;;;;;;4.47;1.40;;;5.70;83.40;;;;;;4865442;29;20048;-80
2022/04/02 12:29:00;;;;;;;3.13;1.60;;;5.60;83.00;;;;;;4882276;29;20095;-80
2022/04/02 12:31:27;;;;;;;5.83;2.17;;;5.60;80.70;;;;;;4879490;29;20811;-80
2022/04/02 12:33:55;;;;;;;1.97;1.40;;;5.60;81.00;;;;;;4878449;29;20060;-80
2022/04/02 12:36:42;;;;;;;2.70;1.53;;;5.50;78.40;;;;;;4866404;29;20091;-80
2022/04/02 12:39:10;;;;;;;4.00;2.00;;;5.40;74.70;;;;;;4876639;29;20045;-80
2022/04/02 12:41:50;;;;;;;2.13;1.37;;;5.40;76.60;;;;;;4873703;29;20108;-80
2022/04/02 12:44:26;;;;;;;3.10;1.70;;;5.40;75.70;;;;;;4877832;29;20053;-79
2022/04/02 12:46:52;;;;;;;2.93;1.50;;;5.50;75.00;;;;;;4871338;29;20049;-79
2022/04/02 12:49:35;;;;;;;4.43;1.87;;;5.50;75.30;;;;;;4871750;29;20135;-80
2022/04/02 12:52:16;;;;;;;3.17;1.43;;;5.60;72.30;;;;;;4881739;29;20044;-86
2022/04/02 12:54:50;;;;;;;3.30;1.90;;;5.60;72.60;;;;;;4901546;29;20077;-81
2022/04/02 12:57:16;;;;;;;3.83;1.90;;;5.70;73.80;;;;;;4879365;29;20433;-80
2022/04/02 12:59:55;;;;;;;3.53;2.10;;;5.70;74.50;;;;;;4879690;29;20095;-80
2022/04/02 13:02:22;;;;;;;3.23;1.67;;;5.90;74.80;;;;;;4881166;29;20060;-80
2022/04/02 13:04:56;;;;;;;2.20;2.00;;;6.10;76.60;;;;;;4878208;29;20057;-80
2022/04/02 13:07:22;;;;;;;4.40;1.73;;;6.20;75.50;;;;;;4868716;29;20052;-79
2022/04/02 13:09:52;;;;;;;6.47;2.10;;;6.00;72.70;;;;;;4874266;29;20055;-80
2022/04/02 13:12:25;;;;;;;5.03;2.53;;;5.70;73.40;;;;;;4878885;29;20543;-80
2022/04/02 13:15:03;;;;;;;3.40;1.83;;;5.60;75.60;;;;;;4866623;29;20163;-82
2022/04/02 13:17:39;;;;;;;4.80;1.97;;;5.40;77.40;;;;;;4863497;29;20052;-81
2022/04/02 13:22:57;;;;;;;3.27;1.67;;;5.30;81.30;;;;;;4867638;29;20049;-81
2022/04/02 13:25:29;;;;;;;4.30;2.00;;;5.20;81.30;;;;;;4871974;29;20067;-83
2022/04/02 13:28:23;;;;;;;3.70;1.87;;;5.30;81.00;;;;;;4870793;29;20052;-84
2022/04/02 13:30:51;;;;;;;2.97;2.07;;;5.30;80.30;;;;;;4877600;29;20553;-84